CDT,Max TemperatureF,Mean TemperatureF,Min TemperatureF,Max Dew PointF,MeanDew PointF,Min DewpointF,Max Humidity, Mean Humidity, Min Humidity, Max Sea Level PressureIn, Mean Sea Level PressureIn, Min Sea Level PressureIn, Max VisibilityMiles, Mean VisibilityMiles, Min VisibilityMiles, Max Wind SpeedMPH, Mean Wind SpeedMPH, Max Gust SpeedMPH,PrecipitationIn, CloudCover, Events, WindDirDegrees
2011-10-1,78,66,54,47,44,42,71,51,31,30.13,30.07,30.00,10,10,10,20,10,24,0.00,0,,4
2011-10-2,74,61,48,50,44,43,89,61,33,30.20,30.15,30.11,10,10,10,15,6,20,0.00,0,,360
2011-10-3,77,61,45,49,44,39,89,58,27,30.25,30.19,30.14,10,10,10,12,4,15,0.00,0,,11
2011-10-4,82,67,51,52,47,44,83,55,26,30.26,30.19,30.15,10,10,10,10,4,17,0.00,0,,18
2011-10-5,84,70,55,60,54,48,90,62,34,30.20,30.15,30.10,10,10,10,13,4,16,0.00,1,,90
2011-10-6,84,71,57,61,58,55,90,65,40,30.19,30.15,30.11,10,10,10,16,4,20,0.00,2,,65
2011-10-7,85,73,61,59,57,55,90,64,37,30.24,30.18,30.14,10,10,10,17,8,24,0.00,0,,62
2011-10-8,86,76,66,63,60,55,81,64,46,30.22,30.16,30.10,10,10,10,18,11,26,T,2,,76
2011-10-9,83,74,64,63,60,55,78,65,51,30.12,30.06,29.99,10,10,10,20,11,25,0.00,3,,54
2011-10-10,84,74,63,64,62,60,87,68,48,30.01,29.93,29.88,10,9,2,22,12,30,T,5,Rain,28
2011-10-11,74,70,65,66,64,62,100,90,79,29.89,29.86,29.81,10,6,1,12,7,16,0.01,8,Rain,351
2011-10-12,73,69,64,65,64,61,93,81,68,29.89,29.85,29.80,10,9,6,9,2,13,0.05,6,,337
2011-10-13,84,73,61,70,62,52,100,67,34,29.87,29.79,29.73,10,9,4,15,6,24,0.01,3,Rain-Thunderstorm,271
2011-10-14,83,68,52,57,52,44,93,60,26,30.04,29.95,29.87,10,10,7,13,3,17,0.00,0,,329
2011-10-15,88,70,52,56,53,47,93,59,24,30.12,30.07,30.04,10,10,10,9,3,13,0.00,0,,13
2011-10-16,89,71,53,57,53,42,93,57,21,30.15,30.08,30.02,10,10,10,9,2,12,0.00,0,,70
2011-10-17,87,71,54,62,58,52,93,65,37,30.02,29.93,29.83,10,10,10,12,3,17,0.00,0,,147
2011-10-18,86,70,54,72,64,47,100,76,51,29.79,29.72,29.59,10,6,0,23,6,33,0.02,5,Fog-Rain,339
2011-10-19,63,52,40,45,39,36,82,61,39,30.03,29.84,29.71,10,10,10,22,10,33,0.00,2,,310
2011-10-20,66,50,34,40,35,30,92,60,28,30.15,30.08,30.03,10,10,10,15,4,21,0.00,0,,288
2011-10-21,72,55,37,42,36,30,92,58,23,30.24,30.18,30.14,10,10,8,15,3,24,0.00,0,,338
2011-10-22,73,56,38,43,38,33,86,56,25,30.21,30.14,30.08,10,10,10,16,4,20,0.00,0,,8
2011-10-23,77,59,40,48,42,37,83,55,27,30.13,30.09,30.04,10,10,10,8,1,24,0.00,2,,128
2011-10-24,80,67,54,59,53,49,86,64,42,30.21,30.14,30.09,10,10,10,15,6,17,0.00,3,,306
2011-10-25,81,66,51,54,51,46,93,63,32,30.24,30.18,30.13,10,10,10,13,5,16,0.00,0,,110
2011-10-26,80,65,50,60,53,48,93,64,35,30.12,30.05,29.98,10,10,4,13,4,17,0.00,1,,159
2011-10-27,82,67,52,61,55,50,96,66,36,29.98,29.93,29.88,10,10,10,12,2,15,0.00,1,,248
2011-10-28,79,65,51,62,55,45,100,77,54,30.07,29.96,29.89,10,8,0,22,8,26,T,5,Fog-Rain,338
2011-10-29,66,55,44,43,35,29,80,53,26,30.17,30.11,30.07,10,10,10,30,14,39,0.00,0,,1
2011-10-30,66,53,39,42,36,33,79,57,34,30.23,30.19,30.16,10,10,10,14,5,16,0.00,3,,48
2011-10-31,73,56,39,40,36,30,83,53,22,30.22,30.18,30.12,10,10,10,16,5,21,0.00,0,,10